sensor_id;sensor_type;location;lat;lon;timestamp;P1;durP1;ratioP1;P2;durP2;ratioP2
78686;SDS011;68002;52.310;6.990;2023-03-24T00:01:11;4.35;;;1.55;;
78686;SDS011;68002;52.310;6.990;2023-03-24T00:03:36;4.83;;;2.27;;
78686;SDS011;68002;52.310;6.990;2023-03-24T00:06:02;5.03;;;2.03;;
78686;SDS011;68002;52.310;6.990;2023-03-24T00:08:30;5.07;;;2.03;;
78686;SDS011;68002;52.310;6.990;2023-03-24T00:11:06;5.10;;;2.25;;
78686;SDS011;68002;52.310;6.990;2023-03-24T00:13:33;4.43;;;1.65;;
78686;SDS011;68002;52.310;6.990;2023-03-24T00:15:59;5.35;;;2.35;;
78686;SDS011;68002;52.310;6.990;2023-03-24T00:18:24;4.90;;;2.10;;
78686;SDS011;68002;52.310;6.990;2023-03-24T00:20:49;5.67;;;1.80;;
78686;SDS011;68002;52.310;6.990;2023-03-24T00:23:16;4.60;;;2.17;;
78686;SDS011;68002;52.310;6.990;2023-03-24T00:25:42;5.40;;;2.30;;
78686;SDS011;68002;52.310;6.990;2023-03-24T00:28:07;6.20;;;1.83;;
78686;SDS011;68002;52.310;6.990;2023-03-24T00:30:33;6.10;;;2.00;;
78686;SDS011;68002;52.310;6.990;2023-03-24T00:32:58;4.80;;;2.05;;
78686;SDS011;68002;52.310;6.990;2023-03-24T00:35:24;5.35;;;2.85;;
78686;SDS011;68002;52.310;6.990;2023-03-24T00:37:49;4.87;;;2.10;;
78686;SDS011;68002;52.310;6.990;2023-03-24T00:40:15;5.57;;;2.43;;
78686;SDS011;68002;52.310;6.990;2023-03-24T00:42:43;5.20;;;1.83;;
78686;SDS011;68002;52.310;6.990;2023-03-24T00:45:10;5.80;;;1.98;;
78686;SDS011;68002;52.310;6.990;2023-03-24T00:47:36;5.03;;;1.75;;
78686;SDS011;68002;52.310;6.990;2023-03-24T00:50:07;3.20;;;1.73;;
78686;SDS011;68002;52.310;6.990;2023-03-24T00:52:35;5.53;;;1.80;;
78686;SDS011;68002;52.310;6.990;2023-03-24T00:55:01;6.50;;;2.07;;
78686;SDS011;68002;52.310;6.990;2023-03-24T00:57:28;3.70;;;1.70;;
78686;SDS011;68002;52.310;6.990;2023-03-24T00:59:54;6.18;;;1.80;;
78686;SDS011;68002;52.310;6.990;2023-03-24T01:02:21;5.43;;;1.92;;
78686;SDS011;68002;52.310;6.990;2023-03-24T01:04:54;3.88;;;2.38;;
78686;SDS011;68002;52.310;6.990;2023-03-24T01:07:21;4.55;;;2.28;;
78686;SDS011;68002;52.310;6.990;2023-03-24T01:09:48;3.90;;;1.90;;
78686;SDS011;68002;52.310;6.990;2023-03-24T01:12:13;4.15;;;2.30;;
78686;SDS011;68002;52.310;6.990;2023-03-24T01:14:39;5.40;;;3.37;;
78686;SDS011;68002;52.310;6.990;2023-03-24T01:17:04;5.70;;;2.33;;
78686;SDS011;68002;52.310;6.990;2023-03-24T01:19:29;5.93;;;2.00;;
78686;SDS011;68002;52.310;6.990;2023-03-24T01:21:54;5.23;;;1.90;;
78686;SDS011;68002;52.310;6.990;2023-03-24T01:24:20;5.70;;;2.03;;
78686;SDS011;68002;52.310;6.990;2023-03-24T01:26:46;4.68;;;2.15;;
78686;SDS011;68002;52.310;6.990;2023-03-24T01:29:11;4.15;;;2.25;;
78686;SDS011;68002;52.310;6.990;2023-03-24T01:31:37;5.13;;;2.40;;
78686;SDS011;68002;52.310;6.990;2023-03-24T01:34:02;4.00;;;2.17;;
78686;SDS011;68002;52.310;6.990;2023-03-24T01:36:28;4.95;;;2.25;;
78686;SDS011;68002;52.310;6.990;2023-03-24T01:38:53;5.47;;;2.40;;
78686;SDS011;68002;52.310;6.990;2023-03-24T01:41:18;4.53;;;2.53;;
78686;SDS011;68002;52.310;6.990;2023-03-24T01:43:43;4.33;;;2.37;;
78686;SDS011;68002;52.310;6.990;2023-03-24T01:48:35;3.50;;;2.33;;
78686;SDS011;68002;52.310;6.990;2023-03-24T01:51:04;4.03;;;2.13;;
78686;SDS011;68002;52.310;6.990;2023-03-24T01:53:31;3.45;;;1.80;;
78686;SDS011;68002;52.310;6.990;2023-03-24T01:55:58;4.05;;;2.10;;
78686;SDS011;68002;52.310;6.990;2023-03-24T01:58:26;3.63;;;2.03;;
78686;SDS011;68002;52.310;6.990;2023-03-24T02:00:53;3.85;;;1.95;;
78686;SDS011;68002;52.310;6.990;2023-03-24T02:03:20;5.30;;;2.35;;
78686;SDS011;68002;52.310;6.990;2023-03-24T02:05:48;4.22;;;2.00;;
78686;SDS011;68002;52.310;6.990;2023-03-24T02:10:54;5.32;;;2.08;;
78686;SDS011;68002;52.310;6.990;2023-03-24T02:13:21;4.13;;;1.88;;
78686;SDS011;68002;52.310;6.990;2023-03-24T02:15:51;4.27;;;2.07;;
78686;SDS011;68002;52.310;6.990;2023-03-24T02:18:34;4.72;;;2.38;;
78686;SDS011;68002;52.310;6.990;2023-03-24T02:26:47;4.75;;;2.15;;
78686;SDS011;68002;52.310;6.990;2023-03-24T02:43:07;3.88;;;2.13;;
78686;SDS011;68002;52.310;6.990;2023-03-24T02:49:25;3.42;;;1.77;;
78686;SDS011;68002;52.310;6.990;2023-03-24T02:51:35;4.20;;;2.33;;
78686;SDS011;68002;52.310;6.990;2023-03-24T02:57:12;3.95;;;2.20;;
78686;SDS011;68002;52.310;6.990;2023-03-24T03:02:44;4.88;;;2.25;;
78686;SDS011;68002;52.310;6.990;2023-03-24T03:05:16;4.22;;;2.25;;
78686;SDS011;68002;52.310;6.990;2023-03-24T03:07:47;3.72;;;2.10;;
78686;SDS011;68002;52.310;6.990;2023-03-24T03:10:16;3.35;;;1.80;;
78686;SDS011;68002;52.310;6.990;2023-03-24T03:12:47;4.38;;;2.03;;
78686;SDS011;68002;52.310;6.990;2023-03-24T03:15:23;3.58;;;2.80;;
78686;SDS011;68002;52.310;6.990;2023-03-24T03:17:57;3.83;;;1.83;;
78686;SDS011;68002;52.310;6.990;2023-03-24T03:20:25;5.20;;;2.00;;
78686;SDS011;68002;52.310;6.990;2023-03-24T03:22:57;5.50;;;2.63;;
78686;SDS011;68002;52.310;6.990;2023-03-24T03:25:26;4.88;;;2.08;;
78686;SDS011;68002;52.310;6.990;2023-03-24T03:27:56;5.35;;;2.30;;
78686;SDS011;68002;52.310;6.990;2023-03-24T03:30:27;5.93;;;3.03;;
78686;SDS011;68002;52.310;6.990;2023-03-24T03:33:00;4.43;;;2.70;;
78686;SDS011;68002;52.310;6.990;2023-03-24T03:35:41;5.32;;;3.03;;
78686;SDS011;68002;52.310;6.990;2023-03-24T03:38:34;4.35;;;2.60;;
78686;SDS011;68002;52.310;6.990;2023-03-24T03:41:20;4.07;;;2.50;;
78686;SDS011;68002;52.310;6.990;2023-03-24T03:43:46;3.70;;;2.30;;
78686;SDS011;68002;52.310;6.990;2023-03-24T03:46:13;3.83;;;3.22;;
78686;SDS011;68002;52.310;6.990;2023-03-24T03:48:40;4.32;;;2.95;;
78686;SDS011;68002;52.310;6.990;2023-03-24T03:51:07;4.90;;;3.00;;
78686;SDS011;68002;52.310;6.990;2023-03-24T03:53:35;4.82;;;2.72;;
78686;SDS011;68002;52.310;6.990;2023-03-24T03:56:05;3.83;;;3.00;;
78686;SDS011;68002;52.310;6.990;2023-03-24T03:58:31;4.97;;;2.63;;
78686;SDS011;68002;52.310;6.990;2023-03-24T04:00:56;4.18;;;2.13;;
78686;SDS011;68002;52.310;6.990;2023-03-24T04:06:12;4.93;;;1.70;;
78686;SDS011;68002;52.310;6.990;2023-03-24T04:08:55;3.72;;;2.00;;
78686;SDS011;68002;52.310;6.990;2023-03-24T04:11:53;3.38;;;2.10;;
78686;SDS011;68002;52.310;6.990;2023-03-24T04:14:50;3.63;;;2.10;;
78686;SDS011;68002;52.310;6.990;2023-03-24T04:17:34;5.68;;;2.75;;
78686;SDS011;68002;52.310;6.990;2023-03-24T04:20:19;3.72;;;2.45;;
78686;SDS011;68002;52.310;6.990;2023-03-24T04:23:13;3.35;;;2.13;;
78686;SDS011;68002;52.310;6.990;2023-03-24T04:28:23;6.70;;;2.47;;
78686;SDS011;68002;52.310;6.990;2023-03-24T04:31:02;3.38;;;2.28;;
78686;SDS011;68002;52.310;6.990;2023-03-24T04:33:34;2.80;;;1.95;;
78686;SDS011;68002;52.310;6.990;2023-03-24T04:36:23;3.00;;;2.03;;
78686;SDS011;68002;52.310;6.990;2023-03-24T04:38:50;3.25;;;1.92;;
78686;SDS011;68002;52.310;6.990;2023-03-24T04:41:16;2.58;;;1.52;;
78686;SDS011;68002;52.310;6.990;2023-03-24T04:43:43;4.20;;;1.55;;
78686;SDS011;68002;52.310;6.990;2023-03-24T04:46:10;2.58;;;1.35;;
78686;SDS011;68002;52.310;6.990;2023-03-24T04:48:35;2.35;;;1.52;;
78686;SDS011;68002;52.310;6.990;2023-03-24T04:51:01;4.30;;;1.67;;
78686;SDS011;68002;52.310;6.990;2023-03-24T04:53:27;2.80;;;1.55;;
78686;SDS011;68002;52.310;6.990;2023-03-24T04:58:27;3.97;;;0.95;;
78686;SDS011;68002;52.310;6.990;2023-03-24T05:00:53;3.10;;;1.47;;
78686;SDS011;68002;52.310;6.990;2023-03-24T05:03:18;3.13;;;1.40;;
78686;SDS011;68002;52.310;6.990;2023-03-24T05:05:44;2.73;;;1.33;;
78686;SDS011;68002;52.310;6.990;2023-03-24T05:08:11;2.55;;;0.80;;
78686;SDS011;68002;52.310;6.990;2023-03-24T05:10:36;2.10;;;1.17;;
78686;SDS011;68002;52.310;6.990;2023-03-24T05:13:02;3.23;;;1.00;;
78686;SDS011;68002;52.310;6.990;2023-03-24T05:15:28;2.22;;;1.58;;
78686;SDS011;68002;52.310;6.990;2023-03-24T05:17:54;3.73;;;1.07;;
78686;SDS011;68002;52.310;6.990;2023-03-24T05:20:19;2.50;;;0.90;;
78686;SDS011;68002;52.310;6.990;2023-03-24T05:22:44;2.37;;;1.13;;
78686;SDS011;68002;52.310;6.990;2023-03-24T05:25:10;2.90;;;1.10;;
78686;SDS011;68002;52.310;6.990;2023-03-24T05:27:36;3.22;;;1.13;;
78686;SDS011;68002;52.310;6.990;2023-03-24T05:30:02;4.05;;;1.40;;
78686;SDS011;68002;52.310;6.990;2023-03-24T05:32:29;2.60;;;1.23;;
78686;SDS011;68002;52.310;6.990;2023-03-24T05:34:54;3.87;;;1.10;;
78686;SDS011;68002;52.310;6.990;2023-03-24T05:37:19;2.63;;;1.13;;
78686;SDS011;68002;52.310;6.990;2023-03-24T05:39:44;2.80;;;1.07;;
78686;SDS011;68002;52.310;6.990;2023-03-24T05:42:10;4.87;;;2.30;;
78686;SDS011;68002;52.310;6.990;2023-03-24T05:44:35;4.47;;;1.80;;
78686;SDS011;68002;52.310;6.990;2023-03-24T05:47:00;4.87;;;1.23;;
78686;SDS011;68002;52.310;6.990;2023-03-24T05:49:26;4.28;;;1.70;;
78686;SDS011;68002;52.310;6.990;2023-03-24T05:51:51;4.00;;;1.20;;
78686;SDS011;68002;52.310;6.990;2023-03-24T05:54:17;3.50;;;1.77;;
78686;SDS011;68002;52.310;6.990;2023-03-24T05:56:42;3.23;;;1.37;;
78686;SDS011;68002;52.310;6.990;2023-03-24T05:59:07;4.77;;;1.40;;
78686;SDS011;68002;52.310;6.990;2023-03-24T06:01:32;3.23;;;1.23;;
78686;SDS011;68002;52.310;6.990;2023-03-24T06:03:58;2.70;;;1.00;;
78686;SDS011;68002;52.310;6.990;2023-03-24T06:06:23;4.43;;;1.37;;
78686;SDS011;68002;52.310;6.990;2023-03-24T06:08:48;7.20;;;1.83;;
78686;SDS011;68002;52.310;6.990;2023-03-24T06:11:13;4.43;;;1.23;;
78686;SDS011;68002;52.310;6.990;2023-03-24T06:13:39;4.90;;;1.30;;
78686;SDS011;68002;52.310;6.990;2023-03-24T06:16:04;4.30;;;0.90;;
78686;SDS011;68002;52.310;6.990;2023-03-24T06:18:30;7.72;;;1.60;;
78686;SDS011;68002;52.310;6.990;2023-03-24T06:20:55;5.30;;;1.10;;
78686;SDS011;68002;52.310;6.990;2023-03-24T06:23:21;4.05;;;1.33;;
78686;SDS011;68002;52.310;6.990;2023-03-24T06:25:47;4.63;;;0.75;;
78686;SDS011;68002;52.310;6.990;2023-03-24T06:28:12;3.27;;;1.20;;
78686;SDS011;68002;52.310;6.990;2023-03-24T06:30:38;6.77;;;1.40;;
78686;SDS011;68002;52.310;6.990;2023-03-24T06:33:03;6.47;;;1.48;;
78686;SDS011;68002;52.310;6.990;2023-03-24T06:35:28;5.33;;;1.40;;
78686;SDS011;68002;52.310;6.990;2023-03-24T06:37:54;7.30;;;1.57;;
78686;SDS011;68002;52.310;6.990;2023-03-24T06:40:19;6.90;;;1.70;;
78686;SDS011;68002;52.310;6.990;2023-03-24T06:42:44;6.70;;;1.43;;
78686;SDS011;68002;52.310;6.990;2023-03-24T06:45:09;6.30;;;1.07;;
78686;SDS011;68002;52.310;6.990;2023-03-24T06:47:35;4.15;;;1.27;;
78686;SDS011;68002;52.310;6.990;2023-03-24T06:50:00;7.15;;;1.40;;
78686;SDS011;68002;52.310;6.990;2023-03-24T06:52:25;7.00;;;1.67;;
78686;SDS011;68002;52.310;6.990;2023-03-24T06:54:51;6.53;;;1.60;;
78686;SDS011;68002;52.310;6.990;2023-03-24T06:57:16;7.33;;;1.83;;
78686;SDS011;68002;52.310;6.990;2023-03-24T06:59:41;8.20;;;2.10;;
78686;SDS011;68002;52.310;6.990;2023-03-24T07:02:08;10.33;;;2.33;;
78686;SDS011;68002;52.310;6.990;2023-03-24T07:04:34;8.57;;;1.70;;
78686;SDS011;68002;52.310;6.990;2023-03-24T07:06:59;10.40;;;1.53;;
78686;SDS011;68002;52.310;6.990;2023-03-24T07:09:25;6.90;;;1.57;;
78686;SDS011;68002;52.310;6.990;2023-03-24T07:11:50;7.20;;;1.60;;
78686;SDS011;68002;52.310;6.990;2023-03-24T07:14:15;8.97;;;2.10;;
78686;SDS011;68002;52.310;6.990;2023-03-24T07:16:40;8.83;;;2.00;;
78686;SDS011;68002;52.310;6.990;2023-03-24T07:19:05;9.37;;;1.93;;
78686;SDS011;68002;52.310;6.990;2023-03-24T07:21:31;9.30;;;2.47;;
78686;SDS011;68002;52.310;6.990;2023-03-24T07:23:56;6.13;;;2.50;;
78686;SDS011;68002;52.310;6.990;2023-03-24T07:26:21;9.37;;;2.13;;
78686;SDS011;68002;52.310;6.990;2023-03-24T07:28:46;12.93;;;1.97;;
78686;SDS011;68002;52.310;6.990;2023-03-24T07:31:12;6.32;;;2.03;;
78686;SDS011;68002;52.310;6.990;2023-03-24T07:33:37;7.43;;;1.90;;
78686;SDS011;68002;52.310;6.990;2023-03-24T07:36:03;10.60;;;2.47;;
78686;SDS011;68002;52.310;6.990;2023-03-24T07:38:29;10.52;;;2.33;;
78686;SDS011;68002;52.310;6.990;2023-03-24T07:40:54;9.97;;;2.67;;
78686;SDS011;68002;52.310;6.990;2023-03-24T07:43:21;8.98;;;3.05;;
78686;SDS011;68002;52.310;6.990;2023-03-24T07:45:46;12.20;;;2.90;;
78686;SDS011;68002;52.310;6.990;2023-03-24T07:48:12;10.10;;;2.33;;
78686;SDS011;68002;52.310;6.990;2023-03-24T07:50:37;10.00;;;2.63;;
78686;SDS011;68002;52.310;6.990;2023-03-24T07:53:02;7.80;;;2.03;;
78686;SDS011;68002;52.310;6.990;2023-03-24T07:55:28;7.32;;;2.72;;
78686;SDS011;68002;52.310;6.990;2023-03-24T07:57:53;11.60;;;2.50;;
78686;SDS011;68002;52.310;6.990;2023-03-24T08:00:19;8.93;;;2.25;;
78686;SDS011;68002;52.310;6.990;2023-03-24T08:02:45;6.38;;;1.92;;
78686;SDS011;68002;52.310;6.990;2023-03-24T08:05:12;7.10;;;1.92;;
78686;SDS011;68002;52.310;6.990;2023-03-24T08:07:45;8.48;;;2.33;;
78686;SDS011;68002;52.310;6.990;2023-03-24T08:10:12;10.63;;;2.13;;
78686;SDS011;68002;52.310;6.990;2023-03-24T08:12:38;8.25;;;2.25;;
78686;SDS011;68002;52.310;6.990;2023-03-24T08:15:04;13.30;;;2.28;;
78686;SDS011;68002;52.310;6.990;2023-03-24T08:17:31;8.40;;;2.00;;
78686;SDS011;68002;52.310;6.990;2023-03-24T08:19:56;6.57;;;1.80;;
78686;SDS011;68002;52.310;6.990;2023-03-24T08:22:21;7.20;;;2.77;;
78686;SDS011;68002;52.310;6.990;2023-03-24T08:24:47;6.20;;;1.97;;
78686;SDS011;68002;52.310;6.990;2023-03-24T08:27:12;5.73;;;1.80;;
78686;SDS011;68002;52.310;6.990;2023-03-24T08:29:37;7.27;;;2.33;;
78686;SDS011;68002;52.310;6.990;2023-03-24T08:32:03;5.03;;;2.63;;
78686;SDS011;68002;52.310;6.990;2023-03-24T08:34:28;8.43;;;2.10;;
78686;SDS011;68002;52.310;6.990;2023-03-24T08:36:53;9.00;;;1.80;;
78686;SDS011;68002;52.310;6.990;2023-03-24T08:39:19;6.63;;;2.33;;
78686;SDS011;68002;52.310;6.990;2023-03-24T08:41:44;6.53;;;2.30;;
78686;SDS011;68002;52.310;6.990;2023-03-24T08:44:10;9.38;;;2.30;;
78686;SDS011;68002;52.310;6.990;2023-03-24T08:46:35;11.63;;;2.90;;
78686;SDS011;68002;52.310;6.990;2023-03-24T08:49:02;9.50;;;3.00;;
78686;SDS011;68002;52.310;6.990;2023-03-24T08:51:28;5.50;;;2.25;;
78686;SDS011;68002;52.310;6.990;2023-03-24T08:53:53;8.73;;;3.13;;
78686;SDS011;68002;52.310;6.990;2023-03-24T08:56:19;8.57;;;2.60;;
78686;SDS011;68002;52.310;6.990;2023-03-24T08:58:45;5.72;;;1.83;;
78686;SDS011;68002;52.310;6.990;2023-03-24T09:01:10;6.32;;;2.08;;
78686;SDS011;68002;52.310;6.990;2023-03-24T09:03:35;11.63;;;2.63;;
78686;SDS011;68002;52.310;6.990;2023-03-24T09:06:01;4.97;;;1.47;;
78686;SDS011;68002;52.310;6.990;2023-03-24T09:08:26;6.17;;;2.03;;
78686;SDS011;68002;52.310;6.990;2023-03-24T09:10:51;7.93;;;2.00;;
78686;SDS011;68002;52.310;6.990;2023-03-24T09:13:17;8.50;;;2.00;;
78686;SDS011;68002;52.310;6.990;2023-03-24T09:15:50;5.35;;;2.17;;
78686;SDS011;68002;52.310;6.990;2023-03-24T09:18:17;6.32;;;1.92;;
78686;SDS011;68002;52.310;6.990;2023-03-24T09:20:43;7.05;;;1.92;;
78686;SDS011;68002;52.310;6.990;2023-03-24T09:23:09;6.47;;;2.00;;
78686;SDS011;68002;52.310;6.990;2023-03-24T09:25:34;5.63;;;2.30;;
78686;SDS011;68002;52.310;6.990;2023-03-24T09:28:00;8.00;;;2.33;;
78686;SDS011;68002;52.310;6.990;2023-03-24T09:30:25;9.70;;;2.20;;
78686;SDS011;68002;52.310;6.990;2023-03-24T09:32:50;5.00;;;2.13;;
78686;SDS011;68002;52.310;6.990;2023-03-24T09:35:15;8.57;;;2.07;;
78686;SDS011;68002;52.310;6.990;2023-03-24T09:37:41;8.10;;;2.17;;
78686;SDS011;68002;52.310;6.990;2023-03-24T09:40:07;7.35;;;2.25;;
78686;SDS011;68002;52.310;6.990;2023-03-24T09:42:39;8.23;;;2.30;;
78686;SDS011;68002;52.310;6.990;2023-03-24T09:45:12;6.82;;;1.95;;
78686;SDS011;68002;52.310;6.990;2023-03-24T09:47:47;6.10;;;1.55;;
78686;SDS011;68002;52.310;6.990;2023-03-24T09:50:18;7.40;;;1.83;;
78686;SDS011;68002;52.310;6.990;2023-03-24T09:52:48;6.43;;;1.85;;
78686;SDS011;68002;52.310;6.990;2023-03-24T09:57:46;7.43;;;1.92;;
78686;SDS011;68002;52.310;6.990;2023-03-24T10:00:20;5.90;;;1.73;;
78686;SDS011;68002;52.310;6.990;2023-03-24T10:02:48;9.13;;;1.63;;
78686;SDS011;68002;52.310;6.990;2023-03-24T10:05:14;5.90;;;2.13;;
78686;SDS011;68002;52.310;6.990;2023-03-24T10:10:48;7.22;;;1.63;;
78686;SDS011;68002;52.310;6.990;2023-03-24T10:14:09;6.55;;;2.35;;
78686;SDS011;68002;52.310;6.990;2023-03-24T10:18:54;4.70;;;1.77;;
78686;SDS011;68002;52.310;6.990;2023-03-24T10:21:23;4.15;;;1.75;;
78686;SDS011;68002;52.310;6.990;2023-03-24T10:23:53;5.55;;;1.48;;
78686;SDS011;68002;52.310;6.990;2023-03-24T10:26:27;5.18;;;2.00;;
78686;SDS011;68002;52.310;6.990;2023-03-24T10:31:56;8.43;;;1.52;;
78686;SDS011;68002;52.310;6.990;2023-03-24T10:34:26;8.32;;;1.80;;
78686;SDS011;68002;52.310;6.990;2023-03-24T10:36:56;5.30;;;1.77;;
78686;SDS011;68002;52.310;6.990;2023-03-24T10:39:23;5.15;;;1.45;;
78686;SDS011;68002;52.310;6.990;2023-03-24T10:41:48;4.53;;;1.77;;
78686;SDS011;68002;52.310;6.990;2023-03-24T10:44:15;8.60;;;1.65;;
78686;SDS011;68002;52.310;6.990;2023-03-24T10:46:43;7.18;;;1.98;;
78686;SDS011;68002;52.310;6.990;2023-03-24T10:51:37;6.93;;;1.27;;
78686;SDS011;68002;52.310;6.990;2023-03-24T10:54:35;8.37;;;1.43;;
78686;SDS011;68002;52.310;6.990;2023-03-24T10:59:24;4.65;;;1.70;;
78686;SDS011;68002;52.310;6.990;2023-03-24T11:01:57;4.63;;;1.58;;
78686;SDS011;68002;52.310;6.990;2023-03-24T11:04:24;8.30;;;2.13;;
78686;SDS011;68002;52.310;6.990;2023-03-24T11:06:52;7.05;;;1.75;;
78686;SDS011;68002;52.310;6.990;2023-03-24T11:09:21;5.75;;;1.58;;
78686;SDS011;68002;52.310;6.990;2023-03-24T11:11:46;5.00;;;1.27;;
78686;SDS011;68002;52.310;6.990;2023-03-24T11:14:25;5.88;;;1.80;;
78686;SDS011;68002;52.310;6.990;2023-03-24T11:16:54;6.13;;;1.02;;
78686;SDS011;68002;52.310;6.990;2023-03-24T11:19:34;7.88;;;2.35;;
78686;SDS011;68002;52.310;6.990;2023-03-24T11:22:01;7.38;;;1.40;;
78686;SDS011;68002;52.310;6.990;2023-03-24T11:24:29;6.07;;;1.52;;
78686;SDS011;68002;52.310;6.990;2023-03-24T11:26:59;8.32;;;1.45;;
78686;SDS011;68002;52.310;6.990;2023-03-24T11:29:25;5.68;;;1.90;;
78686;SDS011;68002;52.310;6.990;2023-03-24T11:31:54;4.43;;;1.02;;
78686;SDS011;68002;52.310;6.990;2023-03-24T11:34:23;4.88;;;1.40;;
78686;SDS011;68002;52.310;6.990;2023-03-24T11:37:12;5.10;;;1.20;;
78686;SDS011;68002;52.310;6.990;2023-03-24T11:39:42;3.58;;;1.38;;
78686;SDS011;68002;52.310;6.990;2023-03-24T11:44:41;6.03;;;1.27;;
78686;SDS011;68002;52.310;6.990;2023-03-24T11:55:16;4.07;;;1.38;;
78686;SDS011;68002;52.310;6.990;2023-03-24T11:57:55;6.30;;;1.60;;
78686;SDS011;68002;52.310;6.990;2023-03-24T12:00:28;4.15;;;1.48;;
78686;SDS011;68002;52.310;6.990;2023-03-24T12:03:10;4.50;;;1.42;;
78686;SDS011;68002;52.310;6.990;2023-03-24T12:05:55;6.97;;;1.15;;
78686;SDS011;68002;52.310;6.990;2023-03-24T12:14:14;2.90;;;1.02;;
78686;SDS011;68002;52.310;6.990;2023-03-24T12:16:55;4.88;;;1.02;;
78686;SDS011;68002;52.310;6.990;2023-03-24T12:19:42;3.95;;;1.00;;
78686;SDS011;68002;52.310;6.990;2023-03-24T12:30:36;3.83;;;0.88;;
78686;SDS011;68002;52.310;6.990;2023-03-24T12:35:39;4.82;;;1.15;;
78686;SDS011;68002;52.310;6.990;2023-03-24T12:38:29;5.57;;;1.15;;
78686;SDS011;68002;52.310;6.990;2023-03-24T12:46:50;3.55;;;1.13;;
78686;SDS011;68002;52.310;6.990;2023-03-24T12:49:34;4.82;;;1.58;;
78686;SDS011;68002;52.310;6.990;2023-03-24T12:55:03;9.05;;;3.03;;
78686;SDS011;68002;52.310;6.990;2023-03-24T12:57:35;4.35;;;1.33;;
78686;SDS011;68002;52.310;6.990;2023-03-24T13:00:27;5.18;;;1.42;;
78686;SDS011;68002;52.310;6.990;2023-03-24T13:03:00;6.10;;;1.95;;
78686;SDS011;68002;52.310;6.990;2023-03-24T13:05:31;3.30;;;1.48;;
78686;SDS011;68002;52.310;6.990;2023-03-24T13:08:01;6.30;;;1.52;;
78686;SDS011;68002;52.310;6.990;2023-03-24T13:10:29;3.20;;;1.70;;
78686;SDS011;68002;52.310;6.990;2023-03-24T13:15:57;5.75;;;1.75;;
78686;SDS011;68002;52.310;6.990;2023-03-24T13:18:47;3.80;;;1.45;;
78686;SDS011;68002;52.310;6.990;2023-03-24T13:21:17;5.10;;;1.88;;
78686;SDS011;68002;52.310;6.990;2023-03-24T13:23:46;3.83;;;1.35;;
78686;SDS011;68002;52.310;6.990;2023-03-24T13:28:59;2.70;;;0.82;;
78686;SDS011;68002;52.310;6.990;2023-03-24T13:31:54;4.70;;;1.02;;
78686;SDS011;68002;52.310;6.990;2023-03-24T13:34:27;2.35;;;0.90;;
78686;SDS011;68002;52.310;6.990;2023-03-24T13:39:36;3.90;;;0.95;;
78686;SDS011;68002;52.310;6.990;2023-03-24T13:42:02;2.40;;;1.30;;
78686;SDS011;68002;52.310;6.990;2023-03-24T13:44:30;4.63;;;1.02;;
78686;SDS011;68002;52.310;6.990;2023-03-24T13:49:36;1.48;;;0.40;;
78686;SDS011;68002;52.310;6.990;2023-03-24T13:52:04;1.90;;;0.75;;
78686;SDS011;68002;52.310;6.990;2023-03-24T13:54:42;2.50;;;0.82;;
78686;SDS011;68002;52.310;6.990;2023-03-24T13:57:12;1.63;;;0.47;;
78686;SDS011;68002;52.310;6.990;2023-03-24T14:07:27;2.73;;;0.73;;
78686;SDS011;68002;52.310;6.990;2023-03-24T14:10:22;0.95;;;0.43;;
78686;SDS011;68002;52.310;6.990;2023-03-24T14:20:59;2.22;;;0.75;;
78686;SDS011;68002;52.310;6.990;2023-03-24T14:26:12;2.45;;;1.13;;
78686;SDS011;68002;52.310;6.990;2023-03-24T14:28:39;2.97;;;0.88;;
78686;SDS011;68002;52.310;6.990;2023-03-24T14:33:31;4.37;;;1.13;;
78686;SDS011;68002;52.310;6.990;2023-03-24T14:35:59;4.17;;;1.60;;
78686;SDS011;68002;52.310;6.990;2023-03-24T14:38:28;3.88;;;1.20;;
78686;SDS011;68002;52.310;6.990;2023-03-24T14:40:59;4.50;;;1.40;;
78686;SDS011;68002;52.310;6.990;2023-03-24T14:51:37;4.50;;;1.30;;
78686;SDS011;68002;52.310;6.990;2023-03-24T14:54:14;4.53;;;1.52;;
78686;SDS011;68002;52.310;6.990;2023-03-24T14:56:44;3.30;;;1.63;;
78686;SDS011;68002;52.310;6.990;2023-03-24T15:07:39;4.85;;;1.80;;
78686;SDS011;68002;52.310;6.990;2023-03-24T15:10:05;6.05;;;2.22;;
78686;SDS011;68002;52.310;6.990;2023-03-24T15:12:31;4.93;;;2.17;;
78686;SDS011;68002;52.310;6.990;2023-03-24T15:14:57;4.72;;;1.45;;
78686;SDS011;68002;52.310;6.990;2023-03-24T15:17:23;4.13;;;1.83;;
78686;SDS011;68002;52.310;6.990;2023-03-24T15:19:52;4.07;;;1.92;;
78686;SDS011;68002;52.310;6.990;2023-03-24T15:22:18;4.95;;;2.03;;
78686;SDS011;68002;52.310;6.990;2023-03-24T15:24:48;4.05;;;1.33;;
78686;SDS011;68002;52.310;6.990;2023-03-24T15:29:41;2.90;;;1.53;;
78686;SDS011;68002;52.310;6.990;2023-03-24T15:32:17;3.63;;;1.42;;
78686;SDS011;68002;52.310;6.990;2023-03-24T15:34:51;2.05;;;1.20;;
78686;SDS011;68002;52.310;6.990;2023-03-24T15:37:20;3.47;;;1.13;;
78686;SDS011;68002;52.310;6.990;2023-03-24T15:39:47;3.03;;;0.95;;
78686;SDS011;68002;52.310;6.990;2023-03-24T15:42:19;3.45;;;1.10;;
78686;SDS011;68002;52.310;6.990;2023-03-24T15:44:47;2.63;;;1.27;;
78686;SDS011;68002;52.310;6.990;2023-03-24T15:47:29;2.38;;;0.70;;
78686;SDS011;68002;52.310;6.990;2023-03-24T15:50:00;2.33;;;0.85;;
78686;SDS011;68002;52.310;6.990;2023-03-24T15:52:30;1.47;;;0.63;;
78686;SDS011;68002;52.310;6.990;2023-03-24T15:54:58;3.40;;;0.70;;
78686;SDS011;68002;52.310;6.990;2023-03-24T15:57:26;1.98;;;0.88;;
78686;SDS011;68002;52.310;6.990;2023-03-24T16:00:03;2.35;;;0.77;;
78686;SDS011;68002;52.310;6.990;2023-03-24T16:02:40;1.90;;;0.40;;
78686;SDS011;68002;52.310;6.990;2023-03-24T16:05:14;1.70;;;0.55;;
78686;SDS011;68002;52.310;6.990;2023-03-24T16:07:42;1.73;;;0.68;;
78686;SDS011;68002;52.310;6.990;2023-03-24T16:10:25;2.30;;;0.50;;
78686;SDS011;68002;52.310;6.990;2023-03-24T16:13:03;1.92;;;0.95;;
78686;SDS011;68002;52.310;6.990;2023-03-24T16:15:30;4.25;;;0.95;;
78686;SDS011;68002;52.310;6.990;2023-03-24T16:17:55;2.30;;;0.43;;
78686;SDS011;68002;52.310;6.990;2023-03-24T16:20:21;2.97;;;0.60;;
78686;SDS011;68002;52.310;6.990;2023-03-24T16:22:46;2.80;;;0.60;;
78686;SDS011;68002;52.310;6.990;2023-03-24T16:25:12;2.20;;;0.53;;
78686;SDS011;68002;52.310;6.990;2023-03-24T16:27:38;1.48;;;0.57;;
78686;SDS011;68002;52.310;6.990;2023-03-24T16:30:37;2.75;;;0.63;;
78686;SDS011;68002;52.310;6.990;2023-03-24T16:33:00;2.00;;;0.90;;
78686;SDS011;68002;52.310;6.990;2023-03-24T16:35:26;2.90;;;0.57;;
78686;SDS011;68002;52.310;6.990;2023-03-24T16:37:51;2.07;;;0.60;;
78686;SDS011;68002;52.310;6.990;2023-03-24T16:40:28;3.00;;;0.70;;
78686;SDS011;68002;52.310;6.990;2023-03-24T16:43:02;2.08;;;0.55;;
78686;SDS011;68002;52.310;6.990;2023-03-24T16:45:28;1.63;;;0.43;;
78686;SDS011;68002;52.310;6.990;2023-03-24T16:47:54;3.75;;;0.68;;
78686;SDS011;68002;52.310;6.990;2023-03-24T16:50:27;4.27;;;1.60;;
78686;SDS011;68002;52.310;6.990;2023-03-24T16:55:21;2.72;;;0.60;;
78686;SDS011;68002;52.310;6.990;2023-03-24T16:57:46;1.83;;;0.87;;
78686;SDS011;68002;52.310;6.990;2023-03-24T17:00:12;2.13;;;0.93;;
78686;SDS011;68002;52.310;6.990;2023-03-24T17:02:37;4.05;;;0.88;;
78686;SDS011;68002;52.310;6.990;2023-03-24T17:05:38;2.97;;;1.00;;
78686;SDS011;68002;52.310;6.990;2023-03-24T17:07:58;5.57;;;1.05;;
78686;SDS011;68002;52.310;6.990;2023-03-24T17:10:23;3.73;;;1.90;;
78686;SDS011;68002;52.310;6.990;2023-03-24T17:12:49;3.53;;;1.15;;
78686;SDS011;68002;52.310;6.990;2023-03-24T17:15:20;3.40;;;0.75;;
78686;SDS011;68002;52.310;6.990;2023-03-24T17:17:48;2.70;;;0.80;;
78686;SDS011;68002;52.310;6.990;2023-03-24T17:20:14;3.30;;;1.00;;
78686;SDS011;68002;52.310;6.990;2023-03-24T17:22:40;2.33;;;0.82;;
78686;SDS011;68002;52.310;6.990;2023-03-24T17:25:07;3.15;;;0.90;;
78686;SDS011;68002;52.310;6.990;2023-03-24T17:27:34;3.78;;;0.73;;